Time;durP1;ratioP1;P1;durP2;ratioP2;P2;SDS_P1;SDS_P2;PMS_P1;PMS_P2;Temp;Humidity;BMP_temperature;BMP_pressure;BME280_temperature;BME280_humidity;BME280_pressure;Samples;Min_cycle;Max_cycle;Signal;HPM_P1;HPM_P2
2023/09/26 00:00:10;;;;;;;6.22;4.07;;;;;;;12.80;100.00;102094.41;5016215;28;20040;-81
2023/09/26 00:02:36;;;;;;;6.72;4.30;;;;;;;12.75;100.00;102092.03;5030490;28;20029;-81
2023/09/26 00:05:03;;;;;;;4.40;4.00;;;;;;;12.76;100.00;102090.25;5031158;28;20028;-80
2023/09/26 00:07:29;;;;;;;5.72;4.35;;;;;;;12.72;100.00;102084.31;5030247;28;20025;-80
2023/09/26 00:09:55;;;;;;;5.65;4.25;;;;;;;12.73;100.00;102083.38;5026405;28;20409;-80
2023/09/26 00:12:21;;;;;;;7.63;4.00;;;;;;;12.70;100.00;102082.72;5028509;28;20044;-80
2023/09/26 00:14:46;;;;;;;5.32;3.80;;;;;;;12.67;100.00;102083.75;5030972;28;20029;-80
2023/09/26 00:17:12;;;;;;;6.53;3.80;;;;;;;12.68;100.00;102084.63;5030527;28;20059;-80
2023/09/26 00:19:37;;;;;;;7.97;4.57;;;;;;;12.65;100.00;102090.09;5030315;28;20025;-80
2023/09/26 00:22:02;;;;;;;6.05;4.47;;;;;;;12.66;100.00;102091.78;5032157;28;20124;-81
2023/09/26 00:24:28;;;;;;;6.70;3.92;;;;;;;12.69;100.00;102091.59;5030067;28;20025;-80
2023/09/26 00:26:57;;;;;;;5.05;4.03;;;;;;;12.61;100.00;102088.59;5030515;28;20032;-80
2023/09/26 00:29:22;;;;;;;5.63;4.22;;;;;;;12.60;100.00;102086.88;5029130;28;20393;-80
2023/09/26 00:31:50;;;;;;;5.95;4.15;;;;;;;12.55;100.00;102081.91;5030459;28;20025;-80
2023/09/26 00:34:17;;;;;;;4.78;4.20;;;;;;;12.55;100.00;102079.25;5031746;28;20021;-80
2023/09/26 00:36:44;;;;;;;7.10;4.65;;;;;;;12.53;100.00;102082.00;5030678;28;20037;-81
2023/09/26 00:39:09;;;;;;;7.00;3.90;;;;;;;12.51;100.00;102085.69;5029500;28;20041;-81
2023/09/26 00:41:35;;;;;;;5.45;3.95;;;;;;;12.50;100.00;102076.91;5029681;28;20572;-81
2023/09/26 00:44:00;;;;;;;5.65;4.57;;;;;;;12.48;100.00;102080.59;5029274;28;20470;-81
2023/09/26 00:46:26;;;;;;;11.10;7.93;;;;;;;12.42;100.00;102073.06;5029069;28;20044;-81
2023/09/26 00:48:51;;;;;;;11.02;7.85;;;;;;;12.39;100.00;102079.34;5029568;28;20041;-80
2023/09/26 00:51:17;;;;;;;10.15;7.43;;;;;;;12.38;100.00;102082.94;5028938;28;20022;-81
2023/09/26 00:53:42;;;;;;;7.95;6.72;;;;;;;12.36;100.00;102082.19;5028380;28;20084;-81
2023/09/26 00:56:09;;;;;;;8.95;6.13;;;;;;;12.35;100.00;102074.34;5029710;28;20025;-81
2023/09/26 00:58:35;;;;;;;6.20;5.00;;;;;;;12.36;100.00;102074.25;5030275;28;20028;-81
2023/09/26 01:01:02;;;;;;;5.50;4.90;;;;;;;12.37;100.00;102075.09;5029850;28;20053;-81
2023/09/26 01:03:28;;;;;;;9.10;5.50;;;;;;;12.33;100.00;102069.16;5030424;28;20099;-81
2023/09/26 01:05:57;;;;;;;6.38;4.80;;;;;;;12.32;100.00;102072.75;5027888;28;20037;-81
2023/09/26 01:08:22;;;;;;;5.72;4.82;;;;;;;12.35;100.00;102069.94;5028056;28;20095;-81
2023/09/26 01:10:48;;;;;;;8.52;4.75;;;;;;;12.33;100.00;102069.16;5025793;28;20022;-81
2023/09/26 01:13:13;;;;;;;5.60;4.70;;;;;;;12.29;100.00;102067.66;5029553;28;20022;-81
2023/09/26 01:15:41;;;;;;;6.35;4.80;;;;;;;12.28;100.00;102063.34;5030019;28;20404;-81
2023/09/26 01:18:08;;;;;;;6.90;4.63;;;;;;;12.33;100.00;102063.91;5044732;28;20032;-80
2023/09/26 01:20:37;;;;;;;6.43;4.93;;;;;;;12.28;100.00;102065.97;5029547;28;20072;-81
2023/09/26 01:23:07;;;;;;;5.88;4.55;;;;;;;12.30;100.00;102073.78;5029944;28;20367;-80
2023/09/26 01:25:36;;;;;;;7.07;4.47;;;;;;;12.28;100.00;102076.53;5029176;28;20398;-80
2023/09/26 01:28:07;;;;;;;6.63;4.65;;;;;;;12.25;100.00;102076.72;5025623;28;20033;-81
2023/09/26 01:30:38;;;;;;;6.97;4.97;;;;;;;12.23;100.00;102090.00;5019690;28;20052;-80
2023/09/26 01:33:08;;;;;;;5.32;4.72;;;;;;;12.22;100.00;102074.28;5027809;28;20409;-81
2023/09/26 01:35:34;;;;;;;7.45;4.47;;;;;;;12.19;100.00;102077.09;5028885;28;20389;-81
2023/09/26 01:38:00;;;;;;;6.00;4.90;;;;;;;12.17;100.00;102082.47;5018405;28;20022;-81
2023/09/26 01:40:25;;;;;;;7.90;4.97;;;;;;;12.16;100.00;102072.84;5028669;28;20048;-80
2023/09/26 01:42:51;;;;;;;5.97;5.30;;;;;;;12.17;100.00;102074.56;5029136;28;20029;-80
2023/09/26 01:45:17;;;;;;;5.93;5.00;;;;;;;12.16;100.00;102072.84;5014123;28;20030;-80
2023/09/26 01:47:51;;;;;;;6.82;4.90;;;;;;;12.12;100.00;102070.50;5024727;28;20025;-81
2023/09/26 01:50:17;;;;;;;7.22;5.05;;;;;;;12.11;100.00;102074.09;5031365;28;20164;-81
2023/09/26 01:52:43;;;;;;;7.57;5.60;;;;;;;12.11;100.00;102071.44;5033658;28;20074;-81
2023/09/26 01:55:14;;;;;;;7.05;5.22;;;;;;;12.11;100.00;102067.03;5022299;28;20390;-81
2023/09/26 01:57:39;;;;;;;5.22;4.60;;;;;;;12.10;100.00;102061.84;5015093;28;20026;-81
2023/09/26 02:00:10;;;;;;;5.65;4.80;;;;;;;12.11;100.00;102063.53;5013584;28;20030;-81
2023/09/26 02:02:40;;;;;;;10.95;4.57;;;;;;;12.05;100.00;102064.75;5017970;28;20092;-82
2023/09/26 02:05:13;;;;;;;8.52;5.30;;;;;;;12.08;100.00;102063.72;5031964;28;20084;-81
2023/09/26 02:07:38;;;;;;;6.35;4.82;;;;;;;12.12;100.00;102065.22;5033154;28;20124;-82
2023/09/26 02:10:05;;;;;;;6.03;4.88;;;;;;;12.12;100.00;102066.06;5031927;28;20142;-81
2023/09/26 02:12:35;;;;;;;6.57;4.68;;;;;;;12.06;100.00;102065.59;5032502;28;20032;-81
2023/09/26 02:15:04;;;;;;;7.15;5.00;;;;;;;12.06;100.00;102055.06;5032351;28;20021;-81
2023/09/26 02:17:29;;;;;;;7.65;5.38;;;;;;;11.98;100.00;102052.84;5032065;28;20052;-81
2023/09/26 02:19:55;;;;;;;7.60;5.35;;;;;;;12.01;100.00;102054.44;5034787;28;20013;-81
2023/09/26 02:22:20;;;;;;;6.68;4.50;;;;;;;11.99;100.00;102053.69;5028524;28;20482;-81
2023/09/26 02:24:46;;;;;;;5.65;4.75;;;;;;;11.97;100.00;102050.31;5032038;28;20040;-81
2023/09/26 02:27:11;;;;;;;6.53;4.93;;;;;;;11.95;100.00;102045.13;5030793;28;20079;-81
2023/09/26 02:29:36;;;;;;;5.70;4.70;;;;;;;11.93;100.00;102047.84;5030950;28;20107;-81
2023/09/26 02:32:02;;;;;;;7.90;5.13;;;;;;;11.93;100.00;102052.28;5031937;28;20044;-81
2023/09/26 02:34:27;;;;;;;6.72;4.75;;;;;;;11.92;100.00;102051.44;5031063;28;20028;-81
2023/09/26 02:36:52;;;;;;;5.82;4.50;;;;;;;11.91;100.00;102057.66;5032615;28;20025;-81
2023/09/26 02:39:18;;;;;;;5.65;4.63;;;;;;;11.90;100.00;102055.97;5045280;28;20389;-81
2023/09/26 02:41:43;;;;;;;5.90;4.95;;;;;;;11.87;100.00;102050.03;5032325;28;20032;-81
2023/09/26 02:44:08;;;;;;;6.25;5.00;;;;;;;11.87;100.00;102050.03;5030975;28;20022;-81
2023/09/26 02:46:34;;;;;;;6.30;4.97;;;;;;;11.87;100.00;102035.03;5047943;28;20040;-81
2023/09/26 02:49:00;;;;;;;5.43;4.78;;;;;;;11.86;100.00;102036.00;5032155;28;20468;-81
2023/09/26 02:51:28;;;;;;;6.38;4.70;;;;;;;11.84;100.00;102032.59;5031481;28;20033;-82
2023/09/26 02:53:54;;;;;;;6.07;4.95;;;;;;;11.83;100.00;102028.25;5030854;28;20017;-81
2023/09/26 02:56:19;;;;;;;5.70;4.43;;;;;;;11.84;100.00;102024.69;5030923;28;20033;-81
2023/09/26 02:58:47;;;;;;;6.28;4.50;;;;;;;11.82;100.00;102020.44;5011621;28;20038;-81
2023/09/26 03:01:16;;;;;;;4.75;4.07;;;;;;;11.78;100.00;102019.78;5028902;28;20382;-81
2023/09/26 03:03:42;;;;;;;6.57;4.65;;;;;;;11.79;100.00;102021.47;5030735;28;20068;-81
2023/09/26 03:06:08;;;;;;;5.75;4.47;;;;;;;11.75;100.00;102009.41;5029231;28;20075;-81
2023/09/26 03:08:34;;;;;;;7.22;4.65;;;;;;;11.78;100.00;102013.66;5030717;28;20029;-81
2023/09/26 03:10:59;;;;;;;7.63;4.88;;;;;;;11.81;100.00;102010.84;5033456;28;20071;-81
2023/09/26 03:13:27;;;;;;;6.32;4.63;;;;;;;11.79;100.00;102016.22;5019559;28;20048;-81
2023/09/26 03:15:55;;;;;;;6.80;4.15;;;;;;;11.80;100.00;102017.91;5029019;28;20029;-80
2023/09/26 03:18:21;;;;;;;6.00;4.78;;;;;;;11.77;100.00;102012.78;5028165;28;20021;-83
2023/09/26 03:20:46;;;;;;;7.00;5.20;;;;;;;11.76;100.00;102015.50;5030348;28;20073;-82
2023/09/26 03:23:13;;;;;;;5.60;4.78;;;;;;;11.73;100.00;102011.28;5030108;28;20055;-82
2023/09/26 03:25:38;;;;;;;6.97;5.30;;;;;;;11.71;100.00;102018.44;5031667;28;20099;-82
2023/09/26 03:28:05;;;;;;;5.95;4.97;;;;;;;11.69;100.00;102012.41;5020004;28;20669;-82
2023/09/26 03:30:30;;;;;;;7.43;5.07;;;;;;;11.69;100.00;102015.03;5040742;28;20048;-82
2023/09/26 03:32:56;;;;;;;8.77;5.38;;;;;;;11.68;100.00;102007.22;5017483;28;20038;-81
2023/09/26 03:35:21;;;;;;;6.20;5.07;;;;;;;11.65;100.00;102007.41;5030629;28;20090;-80
2023/09/26 03:37:47;;;;;;;8.02;5.60;;;;;;;11.59;100.00;102012.06;5029812;28;20036;-80
2023/09/26 03:40:13;;;;;;;7.18;6.00;;;;;;;11.59;100.00;102011.22;5029199;28;20033;-81
2023/09/26 03:42:38;;;;;;;7.30;6.05;;;;;;;11.58;100.00;102010.38;5028789;28;20500;-82
2023/09/26 03:45:05;;;;;;;10.15;5.75;;;;;;;11.57;100.00;102013.09;5028152;28;20021;-82
2023/09/26 03:47:30;;;;;;;8.60;5.72;;;;;;;11.55;100.00;102009.72;5030743;28;20021;-82
2023/09/26 03:49:56;;;;;;;8.45;5.70;;;;;;;11.55;100.00;102017.63;5029890;28;20611;-81
2023/09/26 03:52:25;;;;;;;6.95;5.70;;;;;;;11.54;100.00;102021.19;5031822;28;20037;-81
2023/09/26 03:54:50;;;;;;;8.18;5.53;;;;;;;11.50;100.00;102003.88;5030845;28;20035;-81
2023/09/26 03:57:15;;;;;;;8.07;6.07;;;;;;;11.50;100.00;102003.88;5030967;28;20022;-82
2023/09/26 03:59:41;;;;;;;7.82;5.57;;;;;;;11.47;100.00;101994.38;5031782;28;20037;-81
2023/09/26 04:02:07;;;;;;;5.95;5.35;;;;;;;11.45;100.00;101995.41;5027818;28;20025;-81
2023/09/26 04:04:34;;;;;;;7.50;5.30;;;;;;;11.44;100.00;102004.25;5026018;28;20422;-82
2023/09/26 04:07:00;;;;;;;5.90;5.40;;;;;;;11.49;100.00;102004.81;5028517;28;20537;-82
2023/09/26 04:09:26;;;;;;;7.90;5.78;;;;;;;11.40;100.00;102003.59;5027345;28;20105;-82
2023/09/26 04:11:51;;;;;;;7.88;5.65;;;;;;;11.37;100.00;102008.19;5025721;28;20155;-82
2023/09/26 04:14:16;;;;;;;7.50;6.00;;;;;;;11.35;100.00;101999.53;5026956;28;20029;-83
2023/09/26 04:16:42;;;;;;;9.05;6.15;;;;;;;11.34;100.00;101998.69;5029389;28;20037;-82
2023/09/26 04:19:10;;;;;;;9.10;6.38;;;;;;;11.30;100.00;101991.91;5030163;28;20009;-82
2023/09/26 04:21:36;;;;;;;9.23;6.28;;;;;;;11.28;100.00;101991.97;5030087;28;20071;-82
2023/09/26 04:24:04;;;;;;;7.28;6.32;;;;;;;11.28;100.00;101986.72;5030449;28;20095;-81
2023/09/26 04:26:29;;;;;;;8.57;7.28;;;;;;;11.29;100.00;101983.13;5030999;28;20832;-82
2023/09/26 04:28:55;;;;;;;8.18;7.28;;;;;;;11.26;100.00;101975.41;5029285;28;20032;-82
2023/09/26 04:31:20;;;;;;;9.20;6.82;;;;;;;11.28;100.00;101978.81;5029258;28;20061;-81
2023/09/26 04:33:48;;;;;;;7.93;6.03;;;;;;;11.26;100.00;101971.94;5028437;28;20470;-82
2023/09/26 04:36:13;;;;;;;7.30;6.13;;;;;;;11.30;100.00;101976.94;5027130;28;20501;-82
2023/09/26 04:38:40;;;;;;;8.93;6.18;;;;;;;11.27;100.00;101974.47;5027745;28;20025;-82
2023/09/26 04:41:05;;;;;;;8.80;6.68;;;;;;;11.28;100.00;101968.28;5030535;28;20021;-82
2023/09/26 04:43:31;;;;;;;9.00;7.93;;;;;;;11.34;100.00;101963.56;5029910;28;20028;-82
2023/09/26 04:45:57;;;;;;;14.25;8.48;;;;;;;11.36;100.00;101969.59;5030512;28;20033;-82
2023/09/26 04:48:22;;;;;;;10.18;8.77;;;;;;;11.33;100.00;101967.16;5030115;28;20049;-82
2023/09/26 04:50:49;;;;;;;10.68;8.57;;;;;;;11.36;100.00;101959.91;5029996;28;20026;-82
2023/09/26 04:53:14;;;;;;;9.13;8.32;;;;;;;11.41;100.00;101968.38;5025098;28;20030;-82
2023/09/26 04:55:44;;;;;;;13.73;9.57;;;;;;;11.39;100.00;101959.72;5030995;28;20071;-82
2023/09/26 04:58:09;;;;;;;12.65;9.48;;;;;;;11.43;100.00;101955.13;5028768;28;20033;-82
2023/09/26 05:00:36;;;;;;;10.93;9.85;;;;;;;11.49;100.00;101957.38;5029515;28;20029;-82
2023/09/26 05:03:02;;;;;;;12.13;10.38;;;;;;;11.52;100.00;101962.47;5027126;28;20029;-82
2023/09/26 05:05:27;;;;;;;11.00;9.77;;;;;;;11.56;100.00;101966.59;5028267;28;20044;-82
2023/09/26 05:07:53;;;;;;;10.15;9.15;;;;;;;11.58;100.00;101975.28;5028704;28;20028;-82
2023/09/26 05:10:19;;;;;;;11.85;9.40;;;;;;;11.56;100.00;101966.59;5026861;28;20029;-82
2023/09/26 05:12:44;;;;;;;10.80;9.55;;;;;;;11.54;100.00;101963.22;5023904;28;20108;-82
2023/09/26 05:15:12;;;;;;;11.27;9.77;;;;;;;11.54;100.00;101963.22;5028995;28;20113;-82
2023/09/26 05:17:51;;;;;;;11.02;9.48;;;;;;;11.52;100.00;101954.56;5028702;28;20037;-82
2023/09/26 05:20:18;;;;;;;11.68;8.98;;;;;;;11.52;100.00;101958.03;5028464;28;20110;-82
2023/09/26 05:22:45;;;;;;;11.30;9.43;;;;;;;11.52;100.00;101962.47;5028576;28;20366;-82
2023/09/26 05:25:12;;;;;;;11.70;9.20;;;;;;;11.54;100.00;101957.94;5027115;28;21502;-82
2023/09/26 05:27:38;;;;;;;10.25;8.73;;;;;;;11.51;100.00;101958.13;5030613;28;20029;-82
2023/09/26 05:30:06;;;;;;;11.60;9.15;;;;;;;11.49;100.00;101967.91;5029087;28;20025;-82
2023/09/26 05:32:31;;;;;;;10.50;9.43;;;;;;;11.46;100.00;101960.19;5025912;28;20029;-83
2023/09/26 05:34:57;;;;;;;13.18;9.50;;;;;;;11.46;100.00;101965.47;5028173;28;20091;-82
2023/09/26 05:37:22;;;;;;;13.00;9.80;;;;;;;11.42;100.00;101970.06;5027862;28;20030;-82
2023/09/26 05:39:48;;;;;;;12.77;9.45;;;;;;;11.44;100.00;101962.09;5028383;28;20018;-82
2023/09/26 05:42:13;;;;;;;12.52;9.40;;;;;;;11.45;100.00;101958.50;5028425;28;20428;-82
2023/09/26 05:44:39;;;;;;;11.02;8.90;;;;;;;11.46;100.00;101968.09;5028811;28;20162;-78
2023/09/26 05:47:04;;;;;;;9.77;8.20;;;;;;;11.48;100.00;101976.75;5029219;28;20033;-82
2023/09/26 05:49:30;;;;;;;13.48;9.35;;;;;;;11.47;100.00;101975.91;5028904;28;20046;-82
2023/09/26 05:51:55;;;;;;;11.30;8.90;;;;;;;11.53;100.00;101979.97;5027851;28;20029;-82
2023/09/26 05:54:21;;;;;;;14.23;9.48;;;;;;;11.51;100.00;101979.22;5028825;28;20028;-82
2023/09/26 05:56:46;;;;;;;11.13;9.27;;;;;;;11.57;100.00;101973.56;5027147;28;21909;-81
2023/09/26 05:59:11;;;;;;;12.07;9.50;;;;;;;11.57;100.00;101978.84;5029399;28;20032;-80
2023/09/26 06:01:37;;;;;;;12.18;9.68;;;;;;;11.61;100.00;101972.47;5028257;28;20022;-79
2023/09/26 06:04:03;;;;;;;14.27;10.02;;;;;;;11.66;100.00;101970.41;5021025;28;20029;-81
2023/09/26 06:06:29;;;;;;;13.23;9.95;;;;;;;11.71;100.00;101970.13;5042886;28;20029;-81
2023/09/26 06:08:54;;;;;;;12.40;9.65;;;;;;;11.77;100.00;101970.59;5028157;28;20079;-81
2023/09/26 06:11:20;;;;;;;13.40;10.82;;;;;;;11.83;100.00;101972.88;5028041;28;20646;-81
2023/09/26 06:13:47;;;;;;;13.88;11.20;;;;;;;11.89;100.00;101969.88;5021130;28;20029;-82
2023/09/26 06:16:12;;;;;;;13.95;11.13;;;;;;;11.97;100.00;101973.81;5018983;28;20038;-81
2023/09/26 06:18:38;;;;;;;13.55;10.88;;;;;;;12.03;100.00;101971.69;5028777;28;20028;-81
2023/09/26 06:21:04;;;;;;;12.75;10.07;;;;;;;12.08;100.00;101974.03;5028912;28;20048;-83
2023/09/26 06:23:32;;;;;;;15.48;11.68;;;;;;;12.15;100.00;101956.88;5027509;28;20036;-81
2023/09/26 06:25:59;;;;;;;14.45;11.20;;;;;;;12.22;100.00;101951.09;5028442;28;20104;-81
2023/09/26 06:28:25;;;;;;;13.52;10.43;;;;;;;12.28;100.00;101949.84;5028142;28;20033;-77
2023/09/26 06:30:50;;;;;;;13.55;11.15;;;;;;;12.35;100.00;101948.53;5028528;28;20017;-82
2023/09/26 06:33:16;;;;;;;12.23;10.27;;;;;;;12.41;100.00;101942.03;5025921;28;20026;-81
2023/09/26 06:35:42;;;;;;;14.38;10.07;;;;;;;12.46;100.00;101951.34;5029550;28;20113;-82
2023/09/26 06:38:11;;;;;;;14.05;10.45;;;;;;;12.53;100.00;101952.63;5030911;28;20026;-82
2023/09/26 06:40:37;;;;;;;12.48;9.82;;;;;;;12.61;100.00;101953.94;5031987;28;20040;-82
2023/09/26 06:43:03;;;;;;;12.65;9.68;;;;;;;12.67;100.00;101956.16;5016668;28;20017;-81
2023/09/26 06:45:29;;;;;;;13.90;9.20;;;;;;;12.71;100.00;101960.31;5032724;28;20032;-81
2023/09/26 06:47:55;;;;;;;10.57;8.98;;;;;;;12.73;100.00;101967.19;5050126;28;20033;-75
2023/09/26 06:50:24;;;;;;;11.68;8.88;;;;;;;12.82;100.00;101977.16;5032615;28;20088;-75
2023/09/26 06:52:49;;;;;;;13.70;9.23;;;;;;;12.87;100.00;101966.28;5032452;28;20060;-75
2023/09/26 06:55:18;;;;;;;12.73;8.93;;;;;;;12.90;100.00;101968.72;5031091;28;20029;-75
2023/09/26 06:57:43;;;;;;;10.23;9.13;;;;;;;12.95;100.00;101966.63;5024263;28;20026;-75
2023/09/26 07:00:12;;;;;;;13.77;9.00;;;;;;;13.01;100.00;101975.94;5012605;28;20379;-75
2023/09/26 07:02:40;;;;;;;14.32;8.90;;;;;;;13.04;100.00;101973.94;5031497;28;20021;-75
2023/09/26 07:05:06;;;;;;;10.18;8.75;;;;;;;13.09;100.00;101974.47;5031508;28;20049;-75
2023/09/26 07:07:32;;;;;;;10.27;8.55;;;;;;;13.13;100.00;101975.97;5031275;28;20040;-75
2023/09/26 07:09:58;;;;;;;10.10;8.13;;;;;;;13.21;100.00;101982.56;5030368;28;20029;-75
2023/09/26 07:12:26;;;;;;;11.85;8.43;;;;;;;13.27;100.00;101976.91;5030031;28;20602;-75
2023/09/26 07:14:56;;;;;;;10.70;8.35;;;;;;;13.33;100.00;101981.75;5030420;28;20029;-81
2023/09/26 07:17:21;;;;;;;12.20;8.52;;;;;;;13.45;100.00;101968.56;5029416;28;20648;-80
2023/09/26 07:19:48;;;;;;;14.52;8.57;;;;;;;13.55;100.00;101971.41;5024864;28;20036;-80
2023/09/26 07:22:14;;;;;;;11.75;8.52;;;;;;;13.63;100.00;101965.63;5036421;28;20052;-80
2023/09/26 07:24:40;;;;;;;12.18;7.78;;;;;;;13.72;100.00;101963.19;5031151;28;20572;-77
2023/09/26 07:27:06;;;;;;;9.50;7.55;;;;;;;13.81;100.00;101961.69;5031531;28;20104;-80
2023/09/26 07:29:32;;;;;;;10.05;7.65;;;;;;;13.95;100.00;101966.84;5029201;28;20497;-80
2023/09/26 07:31:57;;;;;;;11.68;8.43;;;;;;;14.07;100.00;101973.09;5030800;28;20071;-81
2023/09/26 07:34:22;;;;;;;11.18;7.20;;;;;;;14.19;100.00;101972.22;5029975;28;20095;-80
2023/09/26 07:36:48;;;;;;;8.82;7.10;;;;;;;14.33;100.00;101961.47;5030823;28;20385;-81
2023/09/26 07:39:17;;;;;;;9.73;7.15;;;;;;;14.35;100.00;101964.88;5028147;28;20422;-80
2023/09/26 07:41:43;;;;;;;10.38;7.03;;;;;;;14.41;100.00;101956.50;5027167;28;20505;-82
2023/09/26 07:44:09;;;;;;;7.97;6.65;;;;;;;14.51;100.00;101961.16;5030443;28;20071;-80
2023/09/26 07:46:34;;;;;;;9.02;6.88;;;;;;;14.50;100.00;101955.00;5028428;28;20025;-80
2023/09/26 07:48:59;;;;;;;9.30;6.40;;;;;;;14.56;100.00;101965.16;5030276;28;20056;-76
2023/09/26 07:51:25;;;;;;;11.32;6.00;;;;;;;14.56;100.00;101965.16;5029563;28;20045;-80
2023/09/26 07:53:50;;;;;;;12.27;6.32;;;;;;;14.61;100.00;101967.47;5029671;28;20087;-80
2023/09/26 07:56:16;;;;;;;8.25;6.10;;;;;;;14.67;100.00;101969.66;5030048;28;20029;-80
2023/09/26 07:58:42;;;;;;;11.15;6.28;;;;;;;14.84;100.00;101958.69;5030252;28;20027;-80
2023/09/26 08:01:08;;;;;;;9.45;6.80;;;;;;;14.98;100.00;101966.44;5028491;28;20029;-80
2023/09/26 08:03:37;;;;;;;13.98;6.85;;;;;;;15.01;100.00;101966.22;5029974;28;20306;-79
2023/09/26 08:06:05;;;;;;;8.68;6.32;;;;;;;15.29;100.00;101961.50;5031311;28;20075;-76
2023/09/26 08:08:31;;;;;;;9.93;6.30;;;;;;;15.47;100.00;101959.22;5027458;28;20033;-79
2023/09/26 08:11:05;;;;;;;9.38;6.50;;;;;;;15.71;100.00;101943.28;5028196;28;20067;-79
2023/09/26 08:13:32;;;;;;;8.68;6.35;;;;;;;15.81;100.00;101941.59;5028882;28;20030;-79
2023/09/26 08:15:58;;;;;;;8.25;5.65;;;;;;;15.79;100.00;101940.84;5030017;28;20486;-79
2023/09/26 08:18:24;;;;;;;9.85;5.93;;;;;;;15.87;100.00;101957.00;5029779;28;20025;-79
2023/09/26 08:20:55;;;;;;;8.07;5.57;;;;;;;15.95;98.20;101959.91;5030929;28;20018;-80
2023/09/26 08:23:20;;;;;;;8.38;5.43;;;;;;;15.99;97.68;101942.78;5024920;28;20026;-79
2023/09/26 08:25:46;;;;;;;9.60;5.47;;;;;;;16.10;98.43;101953.41;5018434;28;20036;-79
2023/09/26 08:28:12;;;;;;;9.43;5.68;;;;;;;16.18;98.34;101950.97;5019129;28;20033;-79
2023/09/26 08:30:37;;;;;;;9.60;5.28;;;;;;;16.36;97.66;101950.44;5039343;28;20014;-79
2023/09/26 08:33:03;;;;;;;8.25;5.20;;;;;;;16.53;95.84;101952.59;5036109;28;20028;-78
2023/09/26 08:35:31;;;;;;;8.95;5.22;;;;;;;16.77;94.04;101958.59;5037263;28;20482;-78
2023/09/26 08:37:56;;;;;;;11.60;5.10;;;;;;;16.87;93.27;101953.38;5020456;28;20025;-78
2023/09/26 08:40:26;;;;;;;8.90;5.07;;;;;;;16.97;91.95;101956.94;5020100;28;20376;-78
2023/09/26 08:42:56;;;;;;;7.55;5.25;;;;;;;17.14;91.64;101947.53;5035502;28;20037;-79
2023/09/26 08:45:24;;;;;;;7.72;4.68;;;;;;;17.31;91.18;101949.66;5029702;28;20037;-79
2023/09/26 08:47:53;;;;;;;8.52;5.10;;;;;;;17.45;89.78;101943.13;5040450;28;20043;-79
2023/09/26 08:50:18;;;;;;;10.80;4.65;;;;;;;17.64;90.45;101939.75;5039652;28;20493;-79
2023/09/26 08:52:44;;;;;;;10.55;4.80;;;;;;;17.82;87.36;101939.03;5041276;28;20029;-80
2023/09/26 08:55:09;;;;;;;10.43;4.57;;;;;;;17.93;85.16;101934.56;5032591;28;20029;-80
2023/09/26 08:57:36;;;;;;;6.05;4.40;;;;;;;17.96;83.69;101945.78;5041585;28;20037;-79
2023/09/26 09:00:03;;;;;;;10.43;4.85;;;;;;;18.06;82.83;101938.69;5039989;28;20047;-79
2023/09/26 09:02:32;;;;;;;8.45;4.10;;;;;;;18.19;82.50;101940.28;5039675;28;20499;-80
2023/09/26 09:04:58;;;;;;;6.30;3.83;;;;;;;18.35;82.91;101932.59;5030853;28;20029;-79
2023/09/26 09:07:25;;;;;;;5.35;3.65;;;;;;;18.52;82.29;101931.09;5030960;28;20018;-80
2023/09/26 09:10:05;;;;;;;6.53;3.85;;;;;;;18.82;82.73;101930.16;5030647;28;20064;-79
2023/09/26 09:12:44;;;;;;;6.50;4.00;;;;;;;18.96;79.26;101929.72;5031502;28;20029;-78
2023/09/26 09:15:15;;;;;;;7.18;4.00;;;;;;;19.02;78.21;101934.50;5032053;28;20030;-80
2023/09/26 09:17:49;;;;;;;7.60;3.53;;;;;;;19.27;79.77;101936.56;5029176;28;20029;-80
2023/09/26 09:20:36;;;;;;;9.82;3.90;;;;;;;19.53;79.52;101943.97;5028817;28;20029;-79
2023/09/26 09:23:06;;;;;;;7.40;4.00;;;;;;;19.66;75.28;101942.69;5030240;28;20025;-80
2023/09/26 09:25:37;;;;;;;8.82;3.92;;;;;;;19.62;75.31;101945.81;5028616;28;20123;-79
2023/09/26 09:28:06;;;;;;;4.93;3.30;;;;;;;19.69;73.61;101938.88;5030105;28;20463;-80
2023/09/26 09:30:41;;;;;;;9.05;3.80;;;;;;;19.82;74.91;101934.03;5028574;28;20029;-79
2023/09/26 09:33:09;;;;;;;6.63;3.30;;;;;;;20.01;72.93;101933.09;5030624;28;20021;-80
2023/09/26 09:35:35;;;;;;;6.32;3.70;;;;;;;20.10;71.04;101939.41;5029257;28;20032;-79
2023/09/26 09:38:02;;;;;;;5.80;3.50;;;;;;;20.15;71.38;101924.59;5027261;28;20074;-79
2023/09/26 09:40:27;;;;;;;6.00;3.10;;;;;;;20.29;70.30;101923.25;5028634;28;20030;-80
2023/09/26 09:42:53;;;;;;;5.35;3.70;;;;;;;20.91;68.49;101922.41;5029024;28;20694;-79
2023/09/26 09:45:19;;;;;;;7.32;3.33;;;;;;;21.20;65.44;101913.22;5026834;28;20080;-79
2023/09/26 09:47:48;;;;;;;6.30;3.60;;;;;;;21.45;65.47;101903.56;5027526;28;20995;-79
2023/09/26 09:50:16;;;;;;;5.75;3.03;;;;;;;21.65;64.56;101899.66;5029043;28;20462;-80
2023/09/26 09:52:47;;;;;;;4.93;3.03;;;;;;;21.63;66.62;101907.03;5029184;28;20108;-79
2023/09/26 09:55:19;;;;;;;5.85;2.97;;;;;;;21.71;64.60;101912.41;5030263;28;20025;-80
2023/09/26 09:57:47;;;;;;;5.60;2.80;;;;;;;21.63;66.02;101909.69;5030539;28;20547;-79
2023/09/26 10:00:14;;;;;;;5.75;3.00;;;;;;;21.65;68.15;101909.53;5027071;28;20032;-79
2023/09/26 10:02:40;;;;;;;5.45;3.13;;;;;;;21.78;63.99;101907.25;5029474;28;20022;-80
2023/09/26 10:05:12;;;;;;;3.97;3.03;;;;;;;21.80;64.72;101908.75;5032304;28;20504;-79
2023/09/26 10:07:42;;;;;;;7.35;3.20;;;;;;;21.78;64.44;101905.41;5026392;28;20108;-79
2023/09/26 10:10:11;;;;;;;4.75;2.78;;;;;;;21.49;64.64;101911.13;5027838;28;20036;-79
2023/09/26 10:12:38;;;;;;;5.10;3.20;;;;;;;21.34;66.89;101911.88;5031277;28;20548;-79
2023/09/26 10:15:11;;;;;;;5.20;2.90;;;;;;;21.22;67.67;101917.47;5032175;28;20033;-79
2023/09/26 10:17:38;;;;;;;5.78;2.92;;;;;;;21.21;67.51;101910.41;5030376;28;20193;-78
2023/09/26 10:20:07;;;;;;;5.47;2.92;;;;;;;21.05;69.95;101912.97;5030943;28;20037;-79
2023/09/26 10:22:34;;;;;;;7.18;3.88;;;;;;;20.83;67.61;101908.13;5030083;28;20026;-79
2023/09/26 10:25:00;;;;;;;5.22;3.17;;;;;;;20.77;69.08;101911.38;5033244;28;20473;-79
2023/09/26 10:27:32;;;;;;;6.68;3.63;;;;;;;20.62;70.96;101911.09;5030461;28;20063;-79
2023/09/26 10:29:59;;;;;;;5.53;3.40;;;;;;;20.78;71.41;101899.69;5030755;28;20363;-79
2023/09/26 10:32:35;;;;;;;6.65;3.28;;;;;;;20.78;70.70;101905.03;5032587;28;20508;-79
2023/09/26 10:35:13;;;;;;;4.25;3.40;;;;;;;20.89;71.80;101910.16;5034313;28;20056;-79
2023/09/26 10:37:44;;;;;;;6.72;3.28;;;;;;;20.91;70.35;101910.84;5033098;28;20087;-79
2023/09/26 10:40:10;;;;;;;6.75;4.03;;;;;;;20.83;69.64;101902.75;5032531;28;20017;-79
2023/09/26 10:42:41;;;;;;;4.88;3.63;;;;;;;20.89;69.85;101892.28;5032123;28;20037;-79
2023/09/26 10:45:10;;;;;;;7.30;3.78;;;;;;;20.87;70.00;101890.75;5034728;28;20025;-79
2023/09/26 10:47:38;;;;;;;6.35;3.70;;;;;;;20.90;70.34;101898.47;5031904;28;20559;-79
2023/09/26 10:50:13;;;;;;;6.18;3.83;;;;;;;20.91;69.98;101909.03;5030195;28;20071;-79
2023/09/26 10:52:49;;;;;;;7.05;3.85;;;;;;;20.80;69.15;101897.69;5031506;28;20025;-79
2023/09/26 10:55:19;;;;;;;7.35;4.00;;;;;;;20.76;69.89;101891.81;5031777;28;20437;-79
2023/09/26 10:57:45;;;;;;;6.35;3.80;;;;;;;20.84;69.79;101888.41;5030841;28;20104;-79
2023/09/26 11:00:12;;;;;;;7.22;3.72;;;;;;;21.01;68.62;101884.84;5031032;28;20029;-79
2023/09/26 11:02:41;;;;;;;5.93;3.80;;;;;;;20.92;68.21;101896.47;5032086;28;20499;-79
2023/09/26 11:05:12;;;;;;;6.20;3.67;;;;;;;20.94;69.43;101902.50;5056661;28;20033;-79
2023/09/26 11:07:38;;;;;;;7.10;4.10;;;;;;;20.93;68.66;101903.50;5025720;28;20036;-79
2023/09/26 11:10:05;;;;;;;8.05;3.92;;;;;;;21.03;69.06;101909.59;5023881;28;20025;-79
2023/09/26 11:12:31;;;;;;;6.32;4.18;;;;;;;21.00;70.78;101912.59;5030156;28;20434;-79
2023/09/26 11:14:59;;;;;;;5.60;3.78;;;;;;;21.03;69.80;101914.13;5032114;28;20029;-79